sensor_id;sensor_type;location;lat;lon;timestamp;P1;durP1;ratioP1;P2;durP2;ratioP2
19903;SDS011;10114;50.970;4.962;2023-07-31T00:00:30;14.35;;;4.15;;
19903;SDS011;10114;50.970;4.962;2023-07-31T00:02:56;16.15;;;4.25;;
19903;SDS011;10114;50.970;4.962;2023-07-31T00:05:22;19.83;;;4.57;;
19903;SDS011;10114;50.970;4.962;2023-07-31T00:07:48;18.55;;;4.07;;
19903;SDS011;10114;50.970;4.962;2023-07-31T00:10:14;15.18;;;4.03;;
19903;SDS011;10114;50.970;4.962;2023-07-31T00:12:42;13.80;;;3.97;;
19903;SDS011;10114;50.970;4.962;2023-07-31T00:15:08;16.20;;;3.58;;
19903;SDS011;10114;50.970;4.962;2023-07-31T00:17:34;14.25;;;3.85;;
19903;SDS011;10114;50.970;4.962;2023-07-31T00:20:00;15.48;;;4.40;;
19903;SDS011;10114;50.970;4.962;2023-07-31T00:22:26;16.08;;;4.57;;
19903;SDS011;10114;50.970;4.962;2023-07-31T00:24:52;17.98;;;4.50;;
19903;SDS011;10114;50.970;4.962;2023-07-31T00:27:18;16.73;;;5.00;;
19903;SDS011;10114;50.970;4.962;2023-07-31T00:29:44;18.50;;;4.45;;
19903;SDS011;10114;50.970;4.962;2023-07-31T00:32:10;13.35;;;4.13;;
19903;SDS011;10114;50.970;4.962;2023-07-31T00:34:37;12.27;;;4.32;;
19903;SDS011;10114;50.970;4.962;2023-07-31T00:37:03;14.38;;;4.20;;
19903;SDS011;10114;50.970;4.962;2023-07-31T00:39:29;14.43;;;3.72;;
19903;SDS011;10114;50.970;4.962;2023-07-31T00:41:56;15.23;;;4.88;;
19903;SDS011;10114;50.970;4.962;2023-07-31T00:44:22;18.95;;;4.22;;
19903;SDS011;10114;50.970;4.962;2023-07-31T00:46:48;14.68;;;4.57;;
19903;SDS011;10114;50.970;4.962;2023-07-31T00:49:14;22.55;;;4.72;;
19903;SDS011;10114;50.970;4.962;2023-07-31T00:51:40;14.88;;;4.93;;
19903;SDS011;10114;50.970;4.962;2023-07-31T00:54:06;12.93;;;4.13;;
19903;SDS011;10114;50.970;4.962;2023-07-31T00:56:32;20.80;;;4.60;;
19903;SDS011;10114;50.970;4.962;2023-07-31T00:58:59;16.75;;;4.28;;
19903;SDS011;10114;50.970;4.962;2023-07-31T01:01:25;18.77;;;4.68;;
19903;SDS011;10114;50.970;4.962;2023-07-31T01:03:51;14.75;;;4.25;;
19903;SDS011;10114;50.970;4.962;2023-07-31T01:09:09;18.23;;;4.43;;
19903;SDS011;10114;50.970;4.962;2023-07-31T01:12:00;15.00;;;4.25;;
19903;SDS011;10114;50.970;4.962;2023-07-31T01:14:24;18.08;;;4.20;;
19903;SDS011;10114;50.970;4.962;2023-07-31T01:16:50;18.27;;;4.95;;
19903;SDS011;10114;50.970;4.962;2023-07-31T01:19:17;15.52;;;4.57;;
19903;SDS011;10114;50.970;4.962;2023-07-31T01:26:47;18.02;;;4.50;;
19903;SDS011;10114;50.970;4.962;2023-07-31T01:29:17;16.60;;;4.85;;
19903;SDS011;10114;50.970;4.962;2023-07-31T01:31:46;11.45;;;4.32;;
19903;SDS011;10114;50.970;4.962;2023-07-31T01:34:14;12.55;;;4.45;;
19903;SDS011;10114;50.970;4.962;2023-07-31T01:36:41;12.57;;;4.28;;
19903;SDS011;10114;50.970;4.962;2023-07-31T01:39:07;13.10;;;3.80;;
19903;SDS011;10114;50.970;4.962;2023-07-31T01:41:33;20.05;;;5.15;;
19903;SDS011;10114;50.970;4.962;2023-07-31T01:43:59;20.48;;;4.53;;
19903;SDS011;10114;50.970;4.962;2023-07-31T01:46:25;14.18;;;3.92;;
19903;SDS011;10114;50.970;4.962;2023-07-31T01:48:52;14.05;;;3.60;;
19903;SDS011;10114;50.970;4.962;2023-07-31T01:51:18;12.88;;;4.53;;
19903;SDS011;10114;50.970;4.962;2023-07-31T01:53:44;11.75;;;4.10;;
19903;SDS011;10114;50.970;4.962;2023-07-31T01:56:10;14.55;;;4.63;;
19903;SDS011;10114;50.970;4.962;2023-07-31T01:58:36;16.38;;;4.20;;
19903;SDS011;10114;50.970;4.962;2023-07-31T02:01:02;15.63;;;4.25;;
19903;SDS011;10114;50.970;4.962;2023-07-31T02:03:28;17.63;;;4.80;;
19903;SDS011;10114;50.970;4.962;2023-07-31T02:05:54;19.10;;;4.70;;
19903;SDS011;10114;50.970;4.962;2023-07-31T02:08:21;15.18;;;4.13;;
19903;SDS011;10114;50.970;4.962;2023-07-31T02:10:47;16.05;;;4.47;;
19903;SDS011;10114;50.970;4.962;2023-07-31T02:13:13;18.55;;;4.60;;
19903;SDS011;10114;50.970;4.962;2023-07-31T02:15:39;15.65;;;4.13;;
19903;SDS011;10114;50.970;4.962;2023-07-31T02:18:05;13.85;;;3.90;;
19903;SDS011;10114;50.970;4.962;2023-07-31T02:20:35;10.55;;;3.97;;
19903;SDS011;10114;50.970;4.962;2023-07-31T02:23:01;15.75;;;4.28;;
19903;SDS011;10114;50.970;4.962;2023-07-31T02:25:27;12.57;;;4.22;;
19903;SDS011;10114;50.970;4.962;2023-07-31T02:27:53;13.80;;;5.80;;
19903;SDS011;10114;50.970;4.962;2023-07-31T02:30:19;18.95;;;4.55;;
19903;SDS011;10114;50.970;4.962;2023-07-31T02:32:45;17.45;;;4.65;;
19903;SDS011;10114;50.970;4.962;2023-07-31T02:35:11;12.70;;;4.40;;
19903;SDS011;10114;50.970;4.962;2023-07-31T02:37:40;14.85;;;4.45;;
19903;SDS011;10114;50.970;4.962;2023-07-31T02:40:06;11.30;;;4.28;;
19903;SDS011;10114;50.970;4.962;2023-07-31T02:42:32;18.77;;;4.50;;
19903;SDS011;10114;50.970;4.962;2023-07-31T02:44:58;15.82;;;4.25;;
19903;SDS011;10114;50.970;4.962;2023-07-31T02:47:24;16.88;;;5.05;;
19903;SDS011;10114;50.970;4.962;2023-07-31T02:49:50;15.40;;;4.10;;
19903;SDS011;10114;50.970;4.962;2023-07-31T02:52:16;12.55;;;4.10;;
19903;SDS011;10114;50.970;4.962;2023-07-31T02:54:42;18.05;;;5.57;;
19903;SDS011;10114;50.970;4.962;2023-07-31T02:57:08;18.52;;;4.68;;
19903;SDS011;10114;50.970;4.962;2023-07-31T02:59:34;14.75;;;4.60;;
19903;SDS011;10114;50.970;4.962;2023-07-31T03:02:00;10.90;;;3.83;;
19903;SDS011;10114;50.970;4.962;2023-07-31T03:04:26;11.88;;;4.55;;
19903;SDS011;10114;50.970;4.962;2023-07-31T03:06:52;10.95;;;4.88;;
19903;SDS011;10114;50.970;4.962;2023-07-31T03:09:20;11.77;;;4.50;;
19903;SDS011;10114;50.970;4.962;2023-07-31T03:11:46;12.88;;;4.45;;
19903;SDS011;10114;50.970;4.962;2023-07-31T03:14:12;13.65;;;4.55;;
19903;SDS011;10114;50.970;4.962;2023-07-31T03:16:38;15.07;;;4.97;;
19903;SDS011;10114;50.970;4.962;2023-07-31T03:19:04;13.27;;;4.50;;
19903;SDS011;10114;50.970;4.962;2023-07-31T03:21:30;15.75;;;4.80;;
19903;SDS011;10114;50.970;4.962;2023-07-31T03:23:56;13.27;;;4.68;;
19903;SDS011;10114;50.970;4.962;2023-07-31T03:26:22;13.50;;;4.47;;
19903;SDS011;10114;50.970;4.962;2023-07-31T03:28:48;15.93;;;4.97;;
19903;SDS011;10114;50.970;4.962;2023-07-31T03:31:14;15.48;;;4.65;;
19903;SDS011;10114;50.970;4.962;2023-07-31T03:33:40;14.90;;;4.60;;
19903;SDS011;10114;50.970;4.962;2023-07-31T03:36:06;13.07;;;5.32;;
19903;SDS011;10114;50.970;4.962;2023-07-31T03:38:33;12.55;;;4.28;;
19903;SDS011;10114;50.970;4.962;2023-07-31T03:40:59;14.15;;;5.20;;
19903;SDS011;10114;50.970;4.962;2023-07-31T03:43:25;9.63;;;3.72;;
19903;SDS011;10114;50.970;4.962;2023-07-31T03:45:51;13.02;;;4.35;;
19903;SDS011;10114;50.970;4.962;2023-07-31T03:48:17;9.88;;;3.92;;
19903;SDS011;10114;50.970;4.962;2023-07-31T03:50:43;13.55;;;4.90;;
19903;SDS011;10114;50.970;4.962;2023-07-31T03:53:09;17.00;;;4.93;;
19903;SDS011;10114;50.970;4.962;2023-07-31T03:55:35;11.55;;;4.45;;
19903;SDS011;10114;50.970;4.962;2023-07-31T03:58:01;9.07;;;4.20;;
19903;SDS011;10114;50.970;4.962;2023-07-31T04:00:27;12.02;;;4.95;;
19903;SDS011;10114;50.970;4.962;2023-07-31T04:02:53;12.88;;;4.55;;
19903;SDS011;10114;50.970;4.962;2023-07-31T04:05:19;12.13;;;4.10;;
19903;SDS011;10114;50.970;4.962;2023-07-31T04:07:45;12.07;;;4.18;;
19903;SDS011;10114;50.970;4.962;2023-07-31T04:10:11;10.85;;;4.13;;
19903;SDS011;10114;50.970;4.962;2023-07-31T04:12:37;9.68;;;3.75;;
19903;SDS011;10114;50.970;4.962;2023-07-31T04:15:03;10.15;;;4.07;;
19903;SDS011;10114;50.970;4.962;2023-07-31T04:17:29;13.13;;;3.90;;
19903;SDS011;10114;50.970;4.962;2023-07-31T04:19:55;10.20;;;4.60;;
19903;SDS011;10114;50.970;4.962;2023-07-31T04:22:21;9.00;;;4.15;;
19903;SDS011;10114;50.970;4.962;2023-07-31T04:24:47;13.30;;;4.18;;
19903;SDS011;10114;50.970;4.962;2023-07-31T04:27:13;12.80;;;4.15;;
19903;SDS011;10114;50.970;4.962;2023-07-31T04:29:39;9.63;;;4.38;;
19903;SDS011;10114;50.970;4.962;2023-07-31T04:32:07;11.02;;;4.32;;
19903;SDS011;10114;50.970;4.962;2023-07-31T04:34:33;9.68;;;4.07;;
19903;SDS011;10114;50.970;4.962;2023-07-31T04:36:59;12.43;;;3.90;;
19903;SDS011;10114;50.970;4.962;2023-07-31T04:39:26;10.48;;;3.97;;
19903;SDS011;10114;50.970;4.962;2023-07-31T04:41:52;9.77;;;4.60;;
19903;SDS011;10114;50.970;4.962;2023-07-31T04:44:18;9.80;;;3.63;;
19903;SDS011;10114;50.970;4.962;2023-07-31T04:46:44;11.30;;;4.55;;
19903;SDS011;10114;50.970;4.962;2023-07-31T04:49:10;10.20;;;4.32;;
19903;SDS011;10114;50.970;4.962;2023-07-31T04:51:36;12.85;;;4.13;;
19903;SDS011;10114;50.970;4.962;2023-07-31T04:54:02;12.02;;;4.53;;
19903;SDS011;10114;50.970;4.962;2023-07-31T04:56:28;9.75;;;3.95;;
19903;SDS011;10114;50.970;4.962;2023-07-31T04:58:54;11.55;;;4.38;;
19903;SDS011;10114;50.970;4.962;2023-07-31T05:01:20;10.32;;;4.80;;
19903;SDS011;10114;50.970;4.962;2023-07-31T05:03:46;12.18;;;4.72;;
19903;SDS011;10114;50.970;4.962;2023-07-31T05:06:12;11.25;;;4.13;;
19903;SDS011;10114;50.970;4.962;2023-07-31T05:08:40;12.35;;;4.55;;
19903;SDS011;10114;50.970;4.962;2023-07-31T05:11:06;10.48;;;4.32;;
19903;SDS011;10114;50.970;4.962;2023-07-31T05:13:32;12.18;;;4.45;;
19903;SDS011;10114;50.970;4.962;2023-07-31T05:15:58;10.93;;;4.25;;
19903;SDS011;10114;50.970;4.962;2023-07-31T05:18:24;11.18;;;4.22;;
19903;SDS011;10114;50.970;4.962;2023-07-31T05:20:50;11.25;;;4.63;;
19903;SDS011;10114;50.970;4.962;2023-07-31T05:23:16;13.45;;;4.22;;
19903;SDS011;10114;50.970;4.962;2023-07-31T05:25:42;11.10;;;3.63;;
19903;SDS011;10114;50.970;4.962;2023-07-31T05:28:08;8.70;;;3.53;;
19903;SDS011;10114;50.970;4.962;2023-07-31T05:30:34;8.55;;;3.67;;
19903;SDS011;10114;50.970;4.962;2023-07-31T05:33:00;12.95;;;4.47;;
19903;SDS011;10114;50.970;4.962;2023-07-31T05:35:27;8.68;;;3.83;;
19903;SDS011;10114;50.970;4.962;2023-07-31T05:37:53;11.93;;;4.07;;
19903;SDS011;10114;50.970;4.962;2023-07-31T05:40:19;9.85;;;3.95;;
19903;SDS011;10114;50.970;4.962;2023-07-31T05:42:45;9.13;;;3.53;;
19903;SDS011;10114;50.970;4.962;2023-07-31T05:45:11;10.55;;;3.83;;
19903;SDS011;10114;50.970;4.962;2023-07-31T05:47:38;9.75;;;4.47;;
19903;SDS011;10114;50.970;4.962;2023-07-31T05:50:04;13.50;;;4.50;;
19903;SDS011;10114;50.970;4.962;2023-07-31T05:52:30;11.00;;;3.55;;
19903;SDS011;10114;50.970;4.962;2023-07-31T05:54:56;12.38;;;4.10;;
19903;SDS011;10114;50.970;4.962;2023-07-31T05:57:23;6.82;;;3.25;;
19903;SDS011;10114;50.970;4.962;2023-07-31T05:59:49;11.52;;;3.83;;
19903;SDS011;10114;50.970;4.962;2023-07-31T06:02:15;8.18;;;3.47;;
19903;SDS011;10114;50.970;4.962;2023-07-31T06:04:41;10.45;;;4.22;;
19903;SDS011;10114;50.970;4.962;2023-07-31T06:07:07;9.35;;;3.80;;
19903;SDS011;10114;50.970;4.962;2023-07-31T06:09:33;10.23;;;3.97;;
19903;SDS011;10114;50.970;4.962;2023-07-31T06:11:59;10.23;;;3.30;;
19903;SDS011;10114;50.970;4.962;2023-07-31T06:14:25;10.35;;;3.70;;
19903;SDS011;10114;50.970;4.962;2023-07-31T06:16:51;11.23;;;3.70;;
19903;SDS011;10114;50.970;4.962;2023-07-31T06:19:17;9.85;;;4.22;;
19903;SDS011;10114;50.970;4.962;2023-07-31T06:21:43;7.35;;;3.25;;
19903;SDS011;10114;50.970;4.962;2023-07-31T06:24:09;12.15;;;3.70;;
19903;SDS011;10114;50.970;4.962;2023-07-31T06:26:37;11.15;;;3.72;;
19903;SDS011;10114;50.970;4.962;2023-07-31T06:29:03;9.32;;;3.33;;
19903;SDS011;10114;50.970;4.962;2023-07-31T06:31:29;15.77;;;4.18;;
19903;SDS011;10114;50.970;4.962;2023-07-31T06:33:55;10.88;;;3.63;;
19903;SDS011;10114;50.970;4.962;2023-07-31T06:36:21;8.88;;;3.92;;
19903;SDS011;10114;50.970;4.962;2023-07-31T06:38:47;10.15;;;3.45;;
19903;SDS011;10114;50.970;4.962;2023-07-31T06:41:13;13.07;;;3.85;;
19903;SDS011;10114;50.970;4.962;2023-07-31T06:43:39;11.40;;;3.80;;
19903;SDS011;10114;50.970;4.962;2023-07-31T06:46:06;10.88;;;4.00;;
19903;SDS011;10114;50.970;4.962;2023-07-31T06:48:32;9.95;;;3.97;;
19903;SDS011;10114;50.970;4.962;2023-07-31T06:50:59;7.20;;;3.50;;
19903;SDS011;10114;50.970;4.962;2023-07-31T06:53:25;10.77;;;4.32;;
19903;SDS011;10114;50.970;4.962;2023-07-31T06:55:51;13.75;;;3.90;;
19903;SDS011;10114;50.970;4.962;2023-07-31T06:58:17;8.50;;;3.58;;
19903;SDS011;10114;50.970;4.962;2023-07-31T07:00:43;10.63;;;3.60;;
19903;SDS011;10114;50.970;4.962;2023-07-31T07:03:09;7.93;;;3.53;;
19903;SDS011;10114;50.970;4.962;2023-07-31T07:05:35;9.52;;;3.58;;
19903;SDS011;10114;50.970;4.962;2023-07-31T07:08:01;8.15;;;3.15;;
19903;SDS011;10114;50.970;4.962;2023-07-31T07:10:27;12.88;;;3.95;;
19903;SDS011;10114;50.970;4.962;2023-07-31T07:12:54;8.85;;;3.67;;
19903;SDS011;10114;50.970;4.962;2023-07-31T07:15:20;8.90;;;3.47;;
19903;SDS011;10114;50.970;4.962;2023-07-31T07:17:46;9.30;;;3.42;;
19903;SDS011;10114;50.970;4.962;2023-07-31T07:20:12;11.25;;;3.58;;
19903;SDS011;10114;50.970;4.962;2023-07-31T07:22:38;10.43;;;3.47;;
19903;SDS011;10114;50.970;4.962;2023-07-31T07:25:06;7.85;;;3.17;;
19903;SDS011;10114;50.970;4.962;2023-07-31T07:27:32;7.70;;;2.83;;
19903;SDS011;10114;50.970;4.962;2023-07-31T07:29:58;8.02;;;3.42;;
19903;SDS011;10114;50.970;4.962;2023-07-31T07:32:24;7.53;;;2.28;;
19903;SDS011;10114;50.970;4.962;2023-07-31T07:34:50;7.90;;;2.92;;
19903;SDS011;10114;50.970;4.962;2023-07-31T07:37:16;9.30;;;3.42;;
19903;SDS011;10114;50.970;4.962;2023-07-31T07:39:43;11.55;;;3.28;;
19903;SDS011;10114;50.970;4.962;2023-07-31T07:42:09;12.20;;;3.30;;
19903;SDS011;10114;50.970;4.962;2023-07-31T07:44:35;9.70;;;3.33;;
19903;SDS011;10114;50.970;4.962;2023-07-31T07:47:01;7.78;;;3.33;;
19903;SDS011;10114;50.970;4.962;2023-07-31T07:49:27;7.50;;;2.88;;
19903;SDS011;10114;50.970;4.962;2023-07-31T07:51:53;7.25;;;2.80;;
19903;SDS011;10114;50.970;4.962;2023-07-31T07:54:19;11.57;;;2.97;;
19903;SDS011;10114;50.970;4.962;2023-07-31T07:56:46;6.05;;;2.80;;
19903;SDS011;10114;50.970;4.962;2023-07-31T07:59:12;10.18;;;3.00;;
19903;SDS011;10114;50.970;4.962;2023-07-31T08:01:38;10.07;;;2.75;;
19903;SDS011;10114;50.970;4.962;2023-07-31T08:04:04;10.23;;;2.92;;
19903;SDS011;10114;50.970;4.962;2023-07-31T08:06:30;9.38;;;3.17;;
19903;SDS011;10114;50.970;4.962;2023-07-31T08:08:56;9.02;;;2.97;;
19903;SDS011;10114;50.970;4.962;2023-07-31T08:11:22;8.13;;;2.90;;
19903;SDS011;10114;50.970;4.962;2023-07-31T08:13:48;12.95;;;3.55;;
19903;SDS011;10114;50.970;4.962;2023-07-31T08:16:15;7.28;;;2.60;;
19903;SDS011;10114;50.970;4.962;2023-07-31T08:18:41;6.95;;;2.72;;
19903;SDS011;10114;50.970;4.962;2023-07-31T08:21:10;10.85;;;3.25;;
19903;SDS011;10114;50.970;4.962;2023-07-31T08:23:36;8.25;;;2.70;;
19903;SDS011;10114;50.970;4.962;2023-07-31T08:26:02;9.98;;;2.85;;
19903;SDS011;10114;50.970;4.962;2023-07-31T08:28:28;7.38;;;2.42;;
19903;SDS011;10114;50.970;4.962;2023-07-31T08:30:54;10.68;;;2.72;;
19903;SDS011;10114;50.970;4.962;2023-07-31T08:33:20;9.50;;;2.80;;
19903;SDS011;10114;50.970;4.962;2023-07-31T08:35:46;6.72;;;2.80;;
19903;SDS011;10114;50.970;4.962;2023-07-31T08:38:12;10.43;;;3.00;;
19903;SDS011;10114;50.970;4.962;2023-07-31T08:40:38;7.35;;;2.33;;
19903;SDS011;10114;50.970;4.962;2023-07-31T08:43:04;6.88;;;2.72;;
19903;SDS011;10114;50.970;4.962;2023-07-31T08:45:30;7.82;;;2.33;;
19903;SDS011;10114;50.970;4.962;2023-07-31T08:47:57;8.57;;;2.70;;
19903;SDS011;10114;50.970;4.962;2023-07-31T08:50:24;6.57;;;1.98;;
19903;SDS011;10114;50.970;4.962;2023-07-31T08:52:51;6.65;;;2.40;;
19903;SDS011;10114;50.970;4.962;2023-07-31T08:55:17;6.35;;;2.15;;
19903;SDS011;10114;50.970;4.962;2023-07-31T08:57:48;7.55;;;2.58;;
19903;SDS011;10114;50.970;4.962;2023-07-31T09:00:14;7.28;;;2.03;;
19903;SDS011;10114;50.970;4.962;2023-07-31T09:02:42;6.35;;;2.33;;
19903;SDS011;10114;50.970;4.962;2023-07-31T09:05:11;7.47;;;2.10;;
19903;SDS011;10114;50.970;4.962;2023-07-31T09:07:37;7.93;;;2.15;;
19903;SDS011;10114;50.970;4.962;2023-07-31T09:10:11;8.18;;;2.22;;
19903;SDS011;10114;50.970;4.962;2023-07-31T09:12:37;5.35;;;2.10;;
19903;SDS011;10114;50.970;4.962;2023-07-31T09:15:03;8.23;;;2.35;;
19903;SDS011;10114;50.970;4.962;2023-07-31T09:17:34;6.55;;;2.15;;
19903;SDS011;10114;50.970;4.962;2023-07-31T09:20:14;5.63;;;1.95;;
19903;SDS011;10114;50.970;4.962;2023-07-31T09:22:40;6.85;;;2.05;;
19903;SDS011;10114;50.970;4.962;2023-07-31T09:25:17;5.10;;;2.05;;
19903;SDS011;10114;50.970;4.962;2023-07-31T09:30:13;8.18;;;2.65;;
19903;SDS011;10114;50.970;4.962;2023-07-31T09:32:39;5.38;;;1.98;;
19903;SDS011;10114;50.970;4.962;2023-07-31T09:35:51;5.70;;;1.83;;
19903;SDS011;10114;50.970;4.962;2023-07-31T09:37:52;7.22;;;2.55;;
19903;SDS011;10114;50.970;4.962;2023-07-31T09:40:28;5.22;;;2.17;;
19903;SDS011;10114;50.970;4.962;2023-07-31T09:42:58;5.85;;;1.95;;
19903;SDS011;10114;50.970;4.962;2023-07-31T09:45:24;5.55;;;2.40;;
19903;SDS011;10114;50.970;4.962;2023-07-31T09:47:51;5.82;;;1.92;;
19903;SDS011;10114;50.970;4.962;2023-07-31T09:50:17;6.20;;;2.33;;
19903;SDS011;10114;50.970;4.962;2023-07-31T09:52:43;8.23;;;2.53;;
19903;SDS011;10114;50.970;4.962;2023-07-31T09:55:09;7.20;;;2.33;;
19903;SDS011;10114;50.970;4.962;2023-07-31T09:57:45;5.50;;;2.25;;
19903;SDS011;10114;50.970;4.962;2023-07-31T10:00:12;7.47;;;2.33;;
19903;SDS011;10114;50.970;4.962;2023-07-31T10:02:39;5.00;;;2.03;;
19903;SDS011;10114;50.970;4.962;2023-07-31T10:05:06;6.15;;;2.40;;
19903;SDS011;10114;50.970;4.962;2023-07-31T10:07:34;8.43;;;2.22;;
19903;SDS011;10114;50.970;4.962;2023-07-31T10:10:01;6.30;;;2.50;;
19903;SDS011;10114;50.970;4.962;2023-07-31T10:12:29;6.68;;;2.67;;
19903;SDS011;10114;50.970;4.962;2023-07-31T10:14:57;8.43;;;3.08;;
19903;SDS011;10114;50.970;4.962;2023-07-31T10:17:25;8.40;;;2.45;;
19903;SDS011;10114;50.970;4.962;2023-07-31T10:19:52;6.43;;;2.17;;
19903;SDS011;10114;50.970;4.962;2023-07-31T10:22:22;7.32;;;2.30;;
19903;SDS011;10114;50.970;4.962;2023-07-31T10:24:48;5.43;;;2.20;;
19903;SDS011;10114;50.970;4.962;2023-07-31T10:27:15;5.50;;;1.90;;
19903;SDS011;10114;50.970;4.962;2023-07-31T10:29:43;7.13;;;2.38;;
19903;SDS011;10114;50.970;4.962;2023-07-31T10:32:09;10.52;;;2.67;;
19903;SDS011;10114;50.970;4.962;2023-07-31T10:34:36;9.23;;;3.03;;
19903;SDS011;10114;50.970;4.962;2023-07-31T10:39:59;9.20;;;2.72;;
19903;SDS011;10114;50.970;4.962;2023-07-31T10:42:44;6.60;;;2.78;;
19903;SDS011;10114;50.970;4.962;2023-07-31T10:45:12;7.18;;;2.80;;
19903;SDS011;10114;50.970;4.962;2023-07-31T10:47:39;6.32;;;2.60;;
19903;SDS011;10114;50.970;4.962;2023-07-31T10:50:18;8.20;;;2.90;;
19903;SDS011;10114;50.970;4.962;2023-07-31T10:52:48;8.38;;;3.00;;
19903;SDS011;10114;50.970;4.962;2023-07-31T10:57:44;7.70;;;3.03;;
19903;SDS011;10114;50.970;4.962;2023-07-31T11:10:37;10.07;;;3.28;;
19903;SDS011;10114;50.970;4.962;2023-07-31T11:13:05;9.27;;;3.58;;
19903;SDS011;10114;50.970;4.962;2023-07-31T11:15:31;10.02;;;3.55;;
19903;SDS011;10114;50.970;4.962;2023-07-31T11:17:57;12.65;;;4.10;;
19903;SDS011;10114;50.970;4.962;2023-07-31T11:20:26;9.57;;;3.42;;
19903;SDS011;10114;50.970;4.962;2023-07-31T11:22:52;8.15;;;3.15;;
19903;SDS011;10114;50.970;4.962;2023-07-31T11:25:18;11.93;;;3.35;;
19903;SDS011;10114;50.970;4.962;2023-07-31T11:27:45;9.35;;;3.22;;
19903;SDS011;10114;50.970;4.962;2023-07-31T11:30:11;8.30;;;3.33;;
19903;SDS011;10114;50.970;4.962;2023-07-31T11:32:37;12.82;;;3.60;;
19903;SDS011;10114;50.970;4.962;2023-07-31T11:35:03;8.68;;;3.38;;
19903;SDS011;10114;50.970;4.962;2023-07-31T11:37:40;15.15;;;3.58;;
19903;SDS011;10114;50.970;4.962;2023-07-31T11:40:06;8.48;;;3.20;;
19903;SDS011;10114;50.970;4.962;2023-07-31T11:42:34;7.30;;;3.00;;
19903;SDS011;10114;50.970;4.962;2023-07-31T11:45:02;9.68;;;3.55;;
19903;SDS011;10114;50.970;4.962;2023-07-31T11:47:28;8.80;;;3.42;;
19903;SDS011;10114;50.970;4.962;2023-07-31T11:49:55;8.90;;;3.05;;
19903;SDS011;10114;50.970;4.962;2023-07-31T11:52:21;8.73;;;3.80;;
19903;SDS011;10114;50.970;4.962;2023-07-31T11:54:48;10.00;;;3.30;;
19903;SDS011;10114;50.970;4.962;2023-07-31T11:57:15;7.15;;;3.38;;
19903;SDS011;10114;50.970;4.962;2023-07-31T11:59:41;9.35;;;3.50;;
19903;SDS011;10114;50.970;4.962;2023-07-31T12:02:08;7.07;;;3.53;;
19903;SDS011;10114;50.970;4.962;2023-07-31T12:04:34;9.95;;;3.42;;
19903;SDS011;10114;50.970;4.962;2023-07-31T12:07:01;11.05;;;2.95;;
19903;SDS011;10114;50.970;4.962;2023-07-31T12:09:27;9.85;;;3.45;;
19903;SDS011;10114;50.970;4.962;2023-07-31T12:11:53;10.18;;;3.88;;
19903;SDS011;10114;50.970;4.962;2023-07-31T12:14:20;10.85;;;3.92;;
19903;SDS011;10114;50.970;4.962;2023-07-31T12:16:47;13.05;;;4.15;;
19903;SDS011;10114;50.970;4.962;2023-07-31T12:19:13;8.95;;;3.50;;
19903;SDS011;10114;50.970;4.962;2023-07-31T12:21:39;8.15;;;3.50;;
19903;SDS011;10114;50.970;4.962;2023-07-31T12:24:05;8.35;;;3.50;;
19903;SDS011;10114;50.970;4.962;2023-07-31T12:26:34;8.10;;;3.00;;
19903;SDS011;10114;50.970;4.962;2023-07-31T12:29:00;11.65;;;3.60;;
19903;SDS011;10114;50.970;4.962;2023-07-31T12:31:27;9.77;;;3.33;;
19903;SDS011;10114;50.970;4.962;2023-07-31T12:33:54;8.25;;;3.20;;
19903;SDS011;10114;50.970;4.962;2023-07-31T12:36:24;7.50;;;2.80;;
19903;SDS011;10114;50.970;4.962;2023-07-31T12:38:50;11.68;;;3.83;;
19903;SDS011;10114;50.970;4.962;2023-07-31T12:41:17;11.25;;;3.58;;
19903;SDS011;10114;50.970;4.962;2023-07-31T12:43:43;12.15;;;3.83;;
19903;SDS011;10114;50.970;4.962;2023-07-31T12:46:10;10.00;;;3.25;;
19903;SDS011;10114;50.970;4.962;2023-07-31T12:48:37;8.98;;;3.65;;
19903;SDS011;10114;50.970;4.962;2023-07-31T12:51:03;10.70;;;3.67;;
19903;SDS011;10114;50.970;4.962;2023-07-31T12:53:29;13.05;;;3.45;;
19903;SDS011;10114;50.970;4.962;2023-07-31T12:55:56;9.40;;;2.80;;
19903;SDS011;10114;50.970;4.962;2023-07-31T12:58:22;9.13;;;3.40;;
19903;SDS011;10114;50.970;4.962;2023-07-31T13:00:48;10.30;;;3.65;;
19903;SDS011;10114;50.970;4.962;2023-07-31T13:03:14;10.60;;;3.83;;
19903;SDS011;10114;50.970;4.962;2023-07-31T13:05:40;10.00;;;3.72;;
19903;SDS011;10114;50.970;4.962;2023-07-31T13:08:06;10.55;;;3.67;;
19903;SDS011;10114;50.970;4.962;2023-07-31T13:10:32;9.82;;;3.05;;
19903;SDS011;10114;50.970;4.962;2023-07-31T13:12:58;10.57;;;3.25;;
19903;SDS011;10114;50.970;4.962;2023-07-31T13:15:24;13.65;;;3.47;;
19903;SDS011;10114;50.970;4.962;2023-07-31T13:17:50;9.75;;;3.70;;
19903;SDS011;10114;50.970;4.962;2023-07-31T13:20:16;10.20;;;3.88;;
19903;SDS011;10114;50.970;4.962;2023-07-31T13:22:42;9.77;;;3.35;;
19903;SDS011;10114;50.970;4.962;2023-07-31T13:25:08;9.88;;;3.80;;
19903;SDS011;10114;50.970;4.962;2023-07-31T13:27:35;9.05;;;3.50;;
19903;SDS011;10114;50.970;4.962;2023-07-31T13:30:01;8.88;;;3.10;;
19903;SDS011;10114;50.970;4.962;2023-07-31T13:32:27;7.50;;;3.33;;
19903;SDS011;10114;50.970;4.962;2023-07-31T13:34:54;9.95;;;4.07;;
19903;SDS011;10114;50.970;4.962;2023-07-31T13:37:19;8.43;;;3.25;;
19903;SDS011;10114;50.970;4.962;2023-07-31T13:39:46;9.95;;;3.13;;
19903;SDS011;10114;50.970;4.962;2023-07-31T13:42:12;9.13;;;3.22;;
19903;SDS011;10114;50.970;4.962;2023-07-31T13:44:38;8.32;;;2.85;;
19903;SDS011;10114;50.970;4.962;2023-07-31T13:47:04;8.80;;;3.25;;
19903;SDS011;10114;50.970;4.962;2023-07-31T13:49:30;11.80;;;4.10;;
19903;SDS011;10114;50.970;4.962;2023-07-31T13:51:56;8.35;;;2.92;;
19903;SDS011;10114;50.970;4.962;2023-07-31T13:54:23;9.48;;;3.42;;
19903;SDS011;10114;50.970;4.962;2023-07-31T13:56:49;7.88;;;2.63;;
19903;SDS011;10114;50.970;4.962;2023-07-31T13:59:15;8.10;;;2.90;;
19903;SDS011;10114;50.970;4.962;2023-07-31T14:01:42;6.60;;;2.38;;
19903;SDS011;10114;50.970;4.962;2023-07-31T14:04:08;7.00;;;2.92;;
19903;SDS011;10114;50.970;4.962;2023-07-31T14:06:34;9.90;;;3.03;;
19903;SDS011;10114;50.970;4.962;2023-07-31T14:09:00;6.32;;;2.20;;
19903;SDS011;10114;50.970;4.962;2023-07-31T14:11:26;9.20;;;2.60;;
19903;SDS011;10114;50.970;4.962;2023-07-31T14:13:52;8.35;;;2.17;;
19903;SDS011;10114;50.970;4.962;2023-07-31T14:16:19;8.43;;;2.47;;
19903;SDS011;10114;50.970;4.962;2023-07-31T14:18:45;8.70;;;2.80;;
19903;SDS011;10114;50.970;4.962;2023-07-31T14:21:11;9.18;;;2.60;;
19903;SDS011;10114;50.970;4.962;2023-07-31T14:23:37;7.40;;;2.40;;
19903;SDS011;10114;50.970;4.962;2023-07-31T14:26:03;6.55;;;2.03;;
19903;SDS011;10114;50.970;4.962;2023-07-31T14:28:29;7.53;;;2.60;;
19903;SDS011;10114;50.970;4.962;2023-07-31T14:30:55;6.70;;;2.92;;
19903;SDS011;10114;50.970;4.962;2023-07-31T14:33:21;7.80;;;2.42;;
19903;SDS011;10114;50.970;4.962;2023-07-31T14:35:47;6.53;;;2.30;;
19903;SDS011;10114;50.970;4.962;2023-07-31T14:38:13;6.80;;;2.10;;
19903;SDS011;10114;50.970;4.962;2023-07-31T14:40:39;4.25;;;1.80;;
19903;SDS011;10114;50.970;4.962;2023-07-31T14:43:05;4.55;;;1.85;;
19903;SDS011;10114;50.970;4.962;2023-07-31T14:45:32;4.80;;;1.90;;
19903;SDS011;10114;50.970;4.962;2023-07-31T14:47:58;4.88;;;1.90;;
19903;SDS011;10114;50.970;4.962;2023-07-31T14:50:24;5.07;;;1.58;;
19903;SDS011;10114;50.970;4.962;2023-07-31T14:52:50;3.92;;;1.60;;
19903;SDS011;10114;50.970;4.962;2023-07-31T14:55:17;6.50;;;2.60;;
19903;SDS011;10114;50.970;4.962;2023-07-31T14:57:43;4.95;;;1.58;;
19903;SDS011;10114;50.970;4.962;2023-07-31T15:00:09;6.78;;;1.88;;
19903;SDS011;10114;50.970;4.962;2023-07-31T15:02:36;6.80;;;2.42;;